Time;durP1;ratioP1;P1;durP2;ratioP2;P2;SDS_P1;SDS_P2;PMS_P1;PMS_P2;Temp;Humidity;BMP_temperature;BMP_pressure;BME280_temperature;BME280_humidity;BME280_pressure;Samples;Min_cycle;Max_cycle;Signal;HPM_P1;HPM_P2
2022/07/14 00:01:37;;;;;;;19.70;3.03;;;14.70;99.90;;;;;;5124925;27;20041;-77
2022/07/14 00:04:03;;;;;;;20.35;2.72;;;14.70;99.90;;;;;;5134085;27;20043;-78
2022/07/14 00:06:29;;;;;;;16.65;2.20;;;14.60;99.90;;;;;;5113399;27;20050;-78
2022/07/14 00:08:55;;;;;;;17.67;2.47;;;14.60;99.90;;;;;;5137235;27;20035;-78
2022/07/14 00:11:21;;;;;;;16.45;2.53;;;14.60;99.90;;;;;;5133653;27;20050;-77
2022/07/14 00:13:47;;;;;;;19.20;2.55;;;14.50;99.90;;;;;;5134607;27;20051;-78
2022/07/14 00:16:12;;;;;;;17.58;2.25;;;14.60;99.90;;;;;;5142972;27;20039;-79
2022/07/14 00:18:43;;;;;;;18.02;2.72;;;14.60;99.90;;;;;;5127502;27;20035;-77
2022/07/14 00:21:15;;;;;;;15.95;2.33;;;14.60;99.90;;;;;;5098877;27;20047;-77
2022/07/14 00:23:45;;;;;;;10.10;2.00;;;14.60;99.90;;;;;;5121510;27;20045;-77
2022/07/14 00:26:12;;;;;;;17.48;2.42;;;14.60;99.90;;;;;;5154928;27;20051;-78
2022/07/14 00:28:38;;;;;;;19.38;2.45;;;14.60;99.90;;;;;;5118900;27;20194;-77
2022/07/14 00:31:11;;;;;;;13.68;1.75;;;14.60;99.90;;;;;;5153942;27;20038;-77
2022/07/14 00:33:38;;;;;;;21.02;2.70;;;14.50;99.90;;;;;;5144642;27;20143;-77
2022/07/14 00:36:04;;;;;;;22.13;2.55;;;14.50;99.90;;;;;;5133403;27;20126;-77
2022/07/14 00:38:30;;;;;;;17.35;2.30;;;14.40;99.90;;;;;;5133405;27;20398;-77
2022/07/14 00:40:56;;;;;;;21.48;2.55;;;14.30;99.90;;;;;;5115717;27;20047;-77
2022/07/14 00:43:22;;;;;;;12.60;2.50;;;14.30;99.90;;;;;;5134124;27;20044;-78
2022/07/14 00:45:48;;;;;;;19.88;2.42;;;14.30;99.90;;;;;;5115484;27;20656;-77
2022/07/14 00:48:14;;;;;;;20.25;2.83;;;14.20;99.90;;;;;;5133409;27;20045;-78
2022/07/14 00:50:44;;;;;;;14.27;2.70;;;14.20;99.90;;;;;;5114006;27;20122;-78
2022/07/14 00:53:11;;;;;;;13.25;2.35;;;14.10;99.90;;;;;;5133806;27;20146;-78
2022/07/14 00:55:40;;;;;;;21.42;2.75;;;14.10;99.90;;;;;;5133277;27;20055;-79
2022/07/14 00:58:06;;;;;;;14.73;2.40;;;14.00;99.90;;;;;;5140164;27;20035;-78
2022/07/14 01:00:31;;;;;;;19.65;2.60;;;13.90;99.90;;;;;;5138007;27;20133;-78
2022/07/14 01:02:57;;;;;;;22.38;2.35;;;13.90;99.90;;;;;;5154031;27;20133;-78
2022/07/14 01:05:23;;;;;;;13.23;2.22;;;13.80;99.90;;;;;;5153539;27;20047;-78
2022/07/14 01:07:49;;;;;;;13.15;2.45;;;13.70;99.90;;;;;;5136293;27;20046;-78
2022/07/14 01:10:15;;;;;;;21.98;3.00;;;13.70;99.90;;;;;;5148719;27;20126;-79
2022/07/14 01:12:46;;;;;;;13.98;2.75;;;13.60;99.90;;;;;;5154342;27;21059;-78
2022/07/14 01:15:21;;;;;;;15.63;2.42;;;13.60;99.90;;;;;;5154157;27;20043;-78
2022/07/14 01:17:47;;;;;;;15.88;2.63;;;13.50;99.90;;;;;;5132939;27;20054;-79
2022/07/14 01:20:14;;;;;;;13.93;2.20;;;13.40;99.90;;;;;;5144940;27;20053;-78
2022/07/14 01:22:40;;;;;;;19.35;2.72;;;13.40;99.90;;;;;;5132549;27;20046;-78
2022/07/14 01:25:07;;;;;;;14.93;2.50;;;13.30;99.90;;;;;;5134479;27;20051;-79
2022/07/14 01:27:36;;;;;;;13.40;2.67;;;13.30;99.90;;;;;;5099012;27;20471;-78
2022/07/14 01:30:03;;;;;;;14.20;3.20;;;13.20;99.90;;;;;;5136886;27;20081;-78
2022/07/14 01:32:29;;;;;;;12.85;3.00;;;13.20;99.90;;;;;;5117499;27;20050;-79
2022/07/14 01:34:55;;;;;;;21.17;4.07;;;13.20;99.90;;;;;;5134086;27;20046;-79
2022/07/14 01:37:21;;;;;;;10.50;2.95;;;13.10;99.90;;;;;;5135399;27;20446;-79
2022/07/14 01:39:47;;;;;;;14.13;2.35;;;13.10;99.90;;;;;;5132743;27;20054;-80
2022/07/14 01:42:13;;;;;;;14.40;2.78;;;13.00;99.90;;;;;;5152793;27;20045;-79
2022/07/14 01:44:39;;;;;;;13.57;3.20;;;13.30;99.90;;;;;;5117316;27;20054;-79
2022/07/14 01:47:05;;;;;;;13.82;2.75;;;13.00;99.90;;;;;;5153489;27;20130;-78
2022/07/14 01:49:30;;;;;;;17.02;3.85;;;13.30;99.90;;;;;;5150998;27;20149;-79
2022/07/14 01:51:56;;;;;;;10.40;2.97;;;13.00;99.90;;;;;;5147010;27;20050;-78
2022/07/14 01:54:23;;;;;;;14.10;3.03;;;12.80;99.90;;;;;;5153057;27;20388;-79
2022/07/14 01:56:49;;;;;;;10.45;3.33;;;12.80;99.90;;;;;;5117067;27;20130;-80
2022/07/14 01:59:15;;;;;;;14.02;3.30;;;12.70;99.90;;;;;;5152074;27;20118;-79
2022/07/14 02:01:41;;;;;;;19.50;3.60;;;12.70;99.90;;;;;;5151638;27;20510;-80
2022/07/14 02:04:12;;;;;;;17.27;3.40;;;12.60;99.90;;;;;;5152863;27;20098;-81
2022/07/14 02:06:49;;;;;;;15.07;3.20;;;12.60;99.90;;;;;;5115037;27;20039;-80
2022/07/14 02:09:15;;;;;;;;;;;12.50;99.90;;;;;;5134045;27;20114;-79
2022/07/14 02:14:28;;;;;;;19.90;4.88;;;12.40;99.90;;;;;;5152466;27;20743;-80
2022/07/14 02:16:54;;;;;;;19.92;4.10;;;12.40;99.90;;;;;;5100494;27;20054;-80
2022/07/14 02:19:20;;;;;;;15.50;3.50;;;12.40;99.90;;;;;;5150924;27;20490;-77
2022/07/14 02:21:47;;;;;;;15.70;3.67;;;12.30;99.90;;;;;;5131684;27;20042;-78
2022/07/14 02:24:13;;;;;;;18.33;3.80;;;12.40;99.90;;;;;;5142258;27;20050;-79
2022/07/14 02:26:41;;;;;;;18.15;3.92;;;12.40;99.90;;;;;;5152229;27;20049;-80
2022/07/14 02:29:06;;;;;;;14.77;3.95;;;12.30;99.90;;;;;;5134339;27;20046;-80
2022/07/14 02:31:33;;;;;;;20.48;4.57;;;12.30;99.90;;;;;;5151918;27;20390;-79
2022/07/14 02:33:59;;;;;;;18.67;4.45;;;12.30;99.90;;;;;;5114927;27;20039;-79
2022/07/14 02:36:25;;;;;;;17.33;4.57;;;12.30;99.90;;;;;;5139596;27;20396;-79
2022/07/14 02:38:51;;;;;;;22.92;4.50;;;12.20;99.90;;;;;;5151124;27;20106;-78
2022/07/14 02:41:18;;;;;;;21.75;4.70;;;12.10;99.90;;;;;;5132454;27;20047;-78
2022/07/14 02:43:43;;;;;;;22.30;4.30;;;12.10;99.90;;;;;;5133286;27;20460;-78
2022/07/14 02:46:09;;;;;;;19.05;4.40;;;12.10;99.90;;;;;;5112997;28;20047;-77
2022/07/14 02:48:35;;;;;;;21.70;4.80;;;12.10;99.90;;;;;;5130643;28;20089;-77
2022/07/14 02:51:06;;;;;;;20.65;4.57;;;12.10;99.90;;;;;;5130533;28;20119;-77
2022/07/14 02:53:34;;;;;;;18.50;4.70;;;12.00;99.90;;;;;;5144583;27;20042;-77
2022/07/14 02:56:03;;;;;;;20.48;5.38;;;12.10;99.90;;;;;;5152124;27;20073;-79
2022/07/14 02:58:29;;;;;;;18.25;4.25;;;12.00;99.90;;;;;;5133928;27;20497;-79
2022/07/14 03:00:55;;;;;;;15.98;4.45;;;12.00;99.90;;;;;;5115720;27;20035;-79
2022/07/14 03:03:22;;;;;;;14.65;4.40;;;12.00;99.90;;;;;;5126417;28;20074;-78
2022/07/14 03:05:49;;;;;;;23.13;5.32;;;12.00;99.90;;;;;;5129932;28;20051;-78
2022/07/14 03:08:15;;;;;;;15.07;4.22;;;11.90;99.90;;;;;;5144656;27;20466;-78
2022/07/14 03:10:41;;;;;;;19.35;4.82;;;11.80;99.90;;;;;;5151826;27;20106;-78
2022/07/14 03:13:08;;;;;;;20.15;4.88;;;11.80;99.90;;;;;;5151283;27;20050;-78
2022/07/14 03:15:34;;;;;;;23.58;5.57;;;11.70;99.90;;;;;;5151717;27;20046;-78
2022/07/14 03:18:01;;;;;;;21.98;5.22;;;11.70;99.90;;;;;;5151624;27;20057;-79
2022/07/14 03:20:27;;;;;;;20.50;4.47;;;11.70;99.90;;;;;;5151016;27;20049;-78
2022/07/14 03:22:53;;;;;;;22.98;5.65;;;11.70;99.90;;;;;;5151562;27;20046;-77
2022/07/14 03:25:19;;;;;;;15.83;4.27;;;11.70;99.90;;;;;;5119509;28;20059;-78
2022/07/14 03:27:46;;;;;;;20.83;5.70;;;11.70;99.90;;;;;;5112690;28;20280;-77
2022/07/14 03:30:13;;;;;;;21.60;6.10;;;11.60;99.90;;;;;;5131417;28;20043;-78
2022/07/14 03:32:39;;;;;;;20.75;5.78;;;11.60;99.90;;;;;;5131255;28;20043;-78
2022/07/14 03:35:07;;;;;;;18.20;5.68;;;11.60;99.90;;;;;;5133211;27;20368;-77
2022/07/14 03:37:33;;;;;;;17.45;5.70;;;11.60;99.90;;;;;;5113562;28;20421;-77
2022/07/14 03:40:00;;;;;;;23.75;5.72;;;11.60;99.90;;;;;;5143786;27;20050;-78
2022/07/14 03:42:25;;;;;;;20.93;5.43;;;11.60;99.90;;;;;;5136588;27;20121;-78
2022/07/14 03:44:51;;;;;;;20.50;4.72;;;11.60;99.90;;;;;;5153937;27;20546;-78
2022/07/14 03:47:17;;;;;;;22.45;5.45;;;11.60;99.90;;;;;;5155688;27;20054;-77
2022/07/14 03:49:43;;;;;;;14.68;4.72;;;11.70;99.90;;;;;;5152364;27;20042;-78
2022/07/14 03:52:09;;;;;;;16.23;4.77;;;11.70;99.90;;;;;;5123871;27;20099;-79
2022/07/14 03:54:36;;;;;;;17.70;4.67;;;11.70;99.90;;;;;;5147396;27;20328;-77
2022/07/14 03:57:03;;;;;;;16.00;4.97;;;11.80;99.90;;;;;;5154172;27;20505;-77
2022/07/14 03:59:29;;;;;;;17.67;5.30;;;11.80;99.90;;;;;;5154382;27;20115;-77
2022/07/14 04:01:54;;;;;;;21.02;5.97;;;11.80;99.90;;;;;;5154977;27;20086;-77
2022/07/14 04:04:20;;;;;;;16.60;5.50;;;11.80;99.90;;;;;;5153716;27;20085;-78
2022/07/14 04:06:46;;;;;;;18.77;6.13;;;11.80;99.90;;;;;;5153040;27;20569;-78
2022/07/14 04:09:12;;;;;;;17.75;5.32;;;11.80;99.90;;;;;;5136592;27;20038;-77
2022/07/14 04:11:37;;;;;;;21.38;6.15;;;11.80;99.90;;;;;;5154740;27;20051;-77
2022/07/14 04:14:03;;;;;;;23.45;6.47;;;11.80;99.90;;;;;;5155318;27;20046;-78
2022/07/14 04:16:29;;;;;;;15.02;6.78;;;11.80;99.90;;;;;;5153266;27;20043;-76
2022/07/14 04:18:55;;;;;;;22.67;7.03;;;11.90;99.90;;;;;;5118098;27;20066;-77
2022/07/14 04:21:20;;;;;;;18.73;6.75;;;11.90;99.90;;;;;;5135289;27;20078;-78
2022/07/14 04:23:46;;;;;;;21.55;7.90;;;11.90;99.90;;;;;;5154148;27;20043;-77
2022/07/14 04:26:12;;;;;;;22.20;6.78;;;12.00;99.90;;;;;;5119444;27;20065;-77
2022/07/14 04:28:38;;;;;;;21.35;8.23;;;12.00;99.90;;;;;;5150843;27;20174;-79
2022/07/14 04:31:04;;;;;;;23.10;7.57;;;12.00;99.90;;;;;;5144815;27;20039;-77
2022/07/14 04:33:30;;;;;;;21.42;6.43;;;12.10;99.90;;;;;;5133784;27;20050;-77
2022/07/14 04:35:56;;;;;;;19.40;6.83;;;12.10;99.90;;;;;;5122304;27;20042;-77
2022/07/14 04:38:22;;;;;;;19.17;7.30;;;12.20;99.90;;;;;;5153471;27;20081;-77
2022/07/14 04:40:49;;;;;;;21.00;6.50;;;12.20;99.90;;;;;;5135557;27;20050;-77
2022/07/14 04:43:17;;;;;;;21.35;6.53;;;12.20;99.90;;;;;;5153886;27;20058;-78
2022/07/14 04:45:43;;;;;;;18.63;7.35;;;12.30;99.90;;;;;;5154024;27;20038;-77
2022/07/14 04:48:08;;;;;;;16.33;6.22;;;12.30;99.90;;;;;;5134749;27;20130;-78
2022/07/14 04:53:19;;;;;;;14.52;5.57;;;12.30;99.90;;;;;;5154312;27;20047;-78
2022/07/14 04:55:44;;;;;;;12.70;5.30;;;12.40;99.90;;;;;;5154827;27;20045;-79
2022/07/14 04:58:10;;;;;;;15.32;5.30;;;12.50;99.90;;;;;;5154161;27;20043;-80
2022/07/14 05:00:36;;;;;;;21.52;6.25;;;12.40;99.90;;;;;;5137161;27;20404;-79
2022/07/14 05:03:03;;;;;;;20.27;5.82;;;12.50;99.90;;;;;;5111477;27;20073;-79
2022/07/14 05:05:28;;;;;;;;;;;12.60;99.90;;;;;;5154360;27;20042;-78
2022/07/14 05:07:54;;;;;;;19.33;6.07;;;12.70;99.90;;;;;;5153873;27;19918;-78
2022/07/14 05:10:20;;;;;;;25.52;6.22;;;12.70;99.90;;;;;;5135461;27;20107;-79
2022/07/14 05:12:46;;;;;;;16.13;6.60;;;12.70;99.90;;;;;;5122386;27;20031;-79
2022/07/14 05:15:12;;;;;;;19.23;5.32;;;12.70;99.90;;;;;;5114825;27;20376;-79
2022/07/14 05:17:37;;;;;;;19.23;5.68;;;12.80;99.90;;;;;;5097781;27;20100;-78
2022/07/14 05:20:03;;;;;;;16.35;4.93;;;12.90;99.90;;;;;;5131919;27;20106;-79
2022/07/14 05:22:37;;;;;;;15.60;5.32;;;13.00;99.90;;;;;;5117009;27;20130;-79
2022/07/14 05:25:10;;;;;;;17.98;5.03;;;13.00;99.90;;;;;;5134586;27;20085;-79
2022/07/14 05:27:38;;;;;;;14.48;5.30;;;13.20;99.90;;;;;;5153525;27;20486;-78
2022/07/14 05:30:05;;;;;;;17.90;5.45;;;13.20;99.90;;;;;;5133487;27;20226;-78
2022/07/14 05:32:31;;;;;;;19.77;5.10;;;13.40;99.90;;;;;;5152566;27;20550;-79
2022/07/14 05:34:58;;;;;;;17.40;5.75;;;13.40;99.90;;;;;;5145662;27;20047;-78
2022/07/14 05:37:25;;;;;;;17.70;5.03;;;13.50;99.90;;;;;;5133048;27;20432;-78
2022/07/14 05:39:51;;;;;;;18.27;6.38;;;13.60;99.90;;;;;;5110424;28;20161;-78
2022/07/14 05:42:19;;;;;;;16.73;6.03;;;13.70;99.90;;;;;;5111385;27;20119;-78
2022/07/14 05:44:45;;;;;;;17.60;4.88;;;13.90;99.90;;;;;;5135454;27;20227;-78
2022/07/14 05:47:11;;;;;;;20.65;4.80;;;13.90;99.90;;;;;;5128270;27;20127;-79
2022/07/14 05:49:43;;;;;;;17.92;4.80;;;14.30;99.90;;;;;;5111676;28;20047;-78
2022/07/14 05:52:12;;;;;;;14.02;3.90;;;14.20;99.90;;;;;;5124890;27;20043;-78
2022/07/14 05:54:39;;;;;;;19.58;4.00;;;14.20;99.90;;;;;;5131775;27;20051;-77
2022/07/14 05:57:05;;;;;;;17.73;4.22;;;14.30;99.90;;;;;;5129985;27;20054;-77
2022/07/14 05:59:31;;;;;;;17.65;3.80;;;14.40;99.90;;;;;;5128807;27;20814;-76
2022/07/14 06:01:57;;;;;;;14.88;3.78;;;14.50;99.90;;;;;;5111900;28;20048;-77
2022/07/14 06:04:22;;;;;;;17.58;2.92;;;14.60;99.90;;;;;;5114894;27;20039;-78
2022/07/14 06:06:48;;;;;;;13.85;2.92;;;14.60;99.90;;;;;;5114851;27;20117;-78
2022/07/14 06:09:14;;;;;;;17.40;3.28;;;14.70;99.90;;;;;;5134897;27;20047;-77
2022/07/14 06:11:41;;;;;;;17.55;3.53;;;14.90;99.90;;;;;;5131725;27;20504;-78
2022/07/14 06:14:07;;;;;;;17.33;3.40;;;15.10;99.90;;;;;;5099430;27;20078;-78
2022/07/14 06:16:34;;;;;;;20.13;3.20;;;15.30;99.90;;;;;;5132115;27;20055;-78
2022/07/14 06:19:00;;;;;;;11.90;2.28;;;15.60;99.90;;;;;;5131996;27;20108;-78
2022/07/14 06:21:26;;;;;;;17.23;1.63;;;15.80;99.90;;;;;;5132714;27;20421;-78
2022/07/14 06:23:51;;;;;;;10.68;1.42;;;16.00;99.90;;;;;;5128815;27;20120;-78
2022/07/14 06:26:17;;;;;;;15.20;1.67;;;16.30;99.90;;;;;;5127500;27;20138;-79
2022/07/14 06:28:43;;;;;;;12.65;1.75;;;16.50;99.90;;;;;;5100812;28;20065;-78
2022/07/14 06:31:09;;;;;;;13.48;1.98;;;16.60;99.90;;;;;;5103402;27;20341;-79
2022/07/14 06:33:35;;;;;;;14.10;1.40;;;16.70;99.90;;;;;;5114174;27;20096;-78
2022/07/14 06:36:00;;;;;;;7.88;1.58;;;16.80;99.90;;;;;;5086555;28;20127;-79
2022/07/14 06:38:26;;;;;;;13.25;1.17;;;16.70;99.90;;;;;;5125648;28;20051;-79
2022/07/14 06:40:52;;;;;;;10.73;1.38;;;16.80;99.90;;;;;;5132546;28;20124;-79
2022/07/14 06:43:18;;;;;;;14.45;1.33;;;16.80;99.90;;;;;;5134673;28;20052;-78
2022/07/14 06:45:44;;;;;;;15.00;1.52;;;16.90;99.90;;;;;;5140078;28;20039;-78
2022/07/14 06:48:09;;;;;;;9.73;1.20;;;16.90;99.90;;;;;;5149755;28;20047;-77
2022/07/14 06:50:35;;;;;;;10.07;0.90;;;17.10;99.90;;;;;;5117084;28;20156;-78
2022/07/14 06:53:01;;;;;;;10.85;1.27;;;17.20;99.90;;;;;;5135512;28;20043;-78
2022/07/14 06:55:27;;;;;;;9.70;1.30;;;17.30;99.90;;;;;;5135131;27;20077;-78
2022/07/14 06:57:53;;;;;;;12.45;1.25;;;17.40;99.90;;;;;;5131239;27;20039;-78
2022/07/14 07:00:19;;;;;;;13.48;1.85;;;17.60;99.90;;;;;;5120153;28;20039;-77
2022/07/14 07:02:44;;;;;;;15.53;1.80;;;17.70;99.90;;;;;;5134098;27;20463;-76
2022/07/14 07:07:59;;;;;;;12.00;0.98;;;17.40;99.90;;;;;;5142730;28;20107;-78
2022/07/14 07:10:25;;;;;;;10.48;1.10;;;17.20;99.90;;;;;;5118949;27;20345;-77
2022/07/14 07:12:51;;;;;;;9.63;0.83;;;17.20;99.90;;;;;;5094039;28;20051;-77
2022/07/14 07:15:17;;;;;;;8.25;0.90;;;17.40;99.90;;;;;;5111605;28;20119;-77
2022/07/14 07:17:43;;;;;;;13.23;1.17;;;17.60;99.90;;;;;;5114827;28;20449;-78
2022/07/14 07:20:09;;;;;;;14.10;1.50;;;17.60;99.90;;;;;;5114183;27;20070;-77
2022/07/14 07:22:36;;;;;;;12.75;1.10;;;17.70;99.90;;;;;;5123892;27;20039;-78
2022/07/14 07:25:03;;;;;;;11.60;1.00;;;17.70;99.90;;;;;;5133715;27;20122;-78
2022/07/14 07:27:29;;;;;;;;;;;17.90;99.90;;;;;;5135941;27;20134;-79
2022/07/14 07:29:54;;;;;;;18.02;1.27;;;18.20;99.90;;;;;;5133942;27;20073;-76
2022/07/14 07:32:20;;;;;;;10.70;1.20;;;18.00;99.90;;;;;;5116277;27;20439;-79
2022/07/14 07:34:47;;;;;;;10.57;0.90;;;18.20;99.90;;;;;;5113038;28;20062;-78
2022/07/14 07:37:13;;;;;;;;;;;18.10;99.90;;;;;;5113271;28;20087;-79
2022/07/14 07:39:38;;;;;;;9.93;1.00;;;18.10;99.90;;;;;;5129577;27;19963;-79
2022/07/14 07:42:04;;;;;;;11.60;1.10;;;18.10;99.90;;;;;;5116432;27;20567;-78
2022/07/14 07:44:30;;;;;;;9.48;1.20;;;18.20;99.90;;;;;;5148136;27;20047;-79
2022/07/14 07:46:56;;;;;;;9.65;0.80;;;18.00;99.90;;;;;;5155753;27;20268;-78
2022/07/14 07:49:23;;;;;;;9.70;0.70;;;18.00;99.90;;;;;;5153096;27;20522;-77
2022/07/14 07:51:48;;;;;;;7.70;0.80;;;17.70;99.90;;;;;;5155605;27;20138;-77
2022/07/14 07:54:14;;;;;;;6.32;0.50;;;17.70;99.90;;;;;;5153813;27;20130;-78
2022/07/14 07:56:40;;;;;;;9.48;0.80;;;17.80;99.90;;;;;;5154198;27;20058;-78
2022/07/14 07:59:06;;;;;;;8.60;0.73;;;18.00;99.90;;;;;;5154885;27;20343;-77
2022/07/14 08:01:32;;;;;;;9.50;0.80;;;18.40;99.90;;;;;;5154516;27;20339;-78
2022/07/14 08:03:58;;;;;;;7.03;0.57;;;;;;;;;;5137397;27;20401;-81
2022/07/14 08:06:24;;;;;;;7.07;0.70;;;18.70;99.90;;;;;;5152833;27;20043;-77
2022/07/14 08:08:49;;;;;;;6.03;0.57;;;18.90;99.90;;;;;;5153077;27;20338;-76
2022/07/14 08:11:15;;;;;;;5.60;0.73;;;19.00;99.90;;;;;;5155015;27;20481;-77
2022/07/14 08:13:41;;;;;;;6.20;0.60;;;19.10;99.90;;;;;;5136851;27;20666;-77
2022/07/14 08:16:07;;;;;;;6.53;0.77;;;19.30;99.90;;;;;;5127276;27;20446;-77
2022/07/14 08:18:33;;;;;;;8.57;1.30;;;19.30;99.90;;;;;;5133809;27;20046;-75
2022/07/14 08:20:58;;;;;;;9.43;1.40;;;19.20;99.90;;;;;;5118326;27;20375;-77
2022/07/14 08:23:26;;;;;;;6.17;0.77;;;19.00;99.90;;;;;;5101898;27;20046;-76
2022/07/14 08:25:52;;;;;;;9.90;0.80;;;19.10;99.90;;;;;;5119667;27;20046;-77
2022/07/14 08:28:18;;;;;;;7.67;0.70;;;19.20;99.90;;;;;;5152911;27;20402;-76
2022/07/14 08:30:44;;;;;;;5.05;0.80;;;19.20;99.90;;;;;;5144842;27;20099;-75
2022/07/14 08:33:10;;;;;;;8.50;0.50;;;19.10;99.90;;;;;;5134327;27;20129;-76
2022/07/14 08:35:37;;;;;;;6.60;0.60;;;19.20;99.90;;;;;;5122495;27;20129;-77
2022/07/14 08:38:03;;;;;;;;;;;19.20;99.90;;;;;;5155083;27;20398;-77
2022/07/14 08:40:28;;;;;;;10.13;0.50;;;19.20;99.90;;;;;;5154386;27;19919;-76
2022/07/14 08:42:56;;;;;;;7.37;1.33;;;19.20;99.90;;;;;;5135835;27;20042;-76
2022/07/14 08:45:24;;;;;;;4.60;0.70;;;19.00;99.90;;;;;;5152622;27;20042;-76
2022/07/14 08:47:51;;;;;;;3.90;0.57;;;18.90;99.90;;;;;;5154184;27;20042;-77
2022/07/14 08:50:19;;;;;;;4.28;0.80;;;18.90;99.90;;;;;;5152673;27;20042;-76
2022/07/14 08:52:46;;;;;;;7.97;0.55;;;18.90;99.90;;;;;;5154662;27;20080;-76
2022/07/14 08:55:14;;;;;;;9.77;0.63;;;19.30;99.90;;;;;;5149071;27;20043;-75
2022/07/14 08:57:40;;;;;;;11.00;0.55;;;19.10;99.90;;;;;;5133655;27;20047;-77
2022/07/14 09:00:12;;;;;;;5.43;0.43;;;19.20;98.70;;;;;;5114456;27;20499;-76
2022/07/14 09:02:39;;;;;;;6.35;0.68;;;19.50;97.80;;;;;;5142964;27;20463;-77
2022/07/14 09:05:06;;;;;;;8.93;0.60;;;19.60;98.80;;;;;;5151391;27;20035;-78
2022/07/14 09:07:36;;;;;;;4.78;0.52;;;19.80;98.90;;;;;;5153031;27;20046;-78
2022/07/14 09:10:05;;;;;;;6.97;0.70;;;19.80;98.20;;;;;;5135605;27;20635;-77
2022/07/14 09:12:30;;;;;;;5.35;0.50;;;20.10;97.60;;;;;;5153742;27;20091;-79
2022/07/14 09:18:03;;;;;;;3.58;0.30;;;20.50;96.50;;;;;;5152520;27;20055;-77
2022/07/14 09:20:31;;;;;;;7.60;0.75;;;20.30;94.40;;;;;;5152173;27;20118;-77
2022/07/14 09:22:59;;;;;;;3.58;0.30;;;20.30;94.50;;;;;;5119974;27;20138;-77
2022/07/14 09:25:27;;;;;;;3.40;0.40;;;20.30;95.20;;;;;;5153433;27;20053;-79
2022/07/14 09:27:54;;;;;;;3.25;0.40;;;20.30;94.90;;;;;;5134354;27;20030;-77
2022/07/14 09:30:20;;;;;;;4.72;0.50;;;20.20;94.10;;;;;;5134410;27;20470;-78
2022/07/14 09:32:58;;;;;;;4.85;0.50;;;20.60;94.40;;;;;;5152822;27;20485;-78
2022/07/14 09:35:33;;;;;;;2.85;0.30;;;21.10;94.80;;;;;;5151270;27;20427;-78
2022/07/14 09:38:18;;;;;;;5.05;0.50;;;21.30;94.40;;;;;;5150495;27;20042;-77
2022/07/14 09:40:45;;;;;;;3.65;0.40;;;22.00;94.20;;;;;;5114306;27;20131;-78
2022/07/14 09:43:13;;;;;;;5.75;0.50;;;22.30;94.20;;;;;;5114117;27;20087;-78
2022/07/14 09:45:45;;;;;;;5.28;0.40;;;21.70;92.00;;;;;;5132747;27;20481;-77
2022/07/14 09:48:19;;;;;;;4.57;0.40;;;22.00;92.50;;;;;;5132064;27;20051;-77
2022/07/14 09:50:48;;;;;;;4.68;0.50;;;22.00;92.20;;;;;;5115511;27;20047;-76
2022/07/14 09:53:26;;;;;;;5.20;0.30;;;21.40;91.90;;;;;;5145151;27;20042;-78
2022/07/14 09:56:03;;;;;;;3.78;0.50;;;21.70;93.00;;;;;;5115477;27;20111;-78
2022/07/14 09:58:31;;;;;;;3.17;0.50;;;22.00;93.60;;;;;;5096871;27;20082;-76
2022/07/14 10:01:01;;;;;;;4.03;0.50;;;22.20;91.20;;;;;;5132571;27;20051;-75
2022/07/14 10:03:29;;;;;;;3.88;0.43;;;21.40;91.60;;;;;;5099540;27;20594;-77
2022/07/14 10:05:57;;;;;;;4.03;0.40;;;21.60;91.60;;;;;;5152307;27;20038;-78
2022/07/14 10:08:28;;;;;;;2.97;0.30;;;21.60;91.70;;;;;;5117524;27;20065;-77
2022/07/14 10:10:55;;;;;;;5.20;0.40;;;21.90;91.60;;;;;;5153205;27;20049;-77
2022/07/14 10:13:22;;;;;;;4.75;0.47;;;21.70;91.30;;;;;;5152417;27;20086;-77
2022/07/14 10:15:52;;;;;;;;;;;21.70;91.50;;;;;;5147854;27;20049;-77
2022/07/14 10:18:18;;;;;;;2.17;0.30;;;21.60;91.50;;;;;;5133012;27;19979;-77
2022/07/14 10:20:47;;;;;;;3.65;0.35;;;22.00;92.10;;;;;;5133195;27;20043;-77
2022/07/14 10:23:13;;;;;;;3.97;0.50;;;22.10;91.80;;;;;;5151445;27;20069;-77
2022/07/14 10:25:40;;;;;;;5.68;0.60;;;22.30;92.10;;;;;;5152707;27;20043;-77
2022/07/14 10:28:05;;;;;;;4.18;0.40;;;22.20;91.00;;;;;;5137105;27;20043;-77
2022/07/14 10:30:43;;;;;;;6.87;0.60;;;22.20;90.80;;;;;;5117965;27;20378;-78
2022/07/14 10:33:34;;;;;;;4.13;0.35;;;22.20;91.10;;;;;;5152628;27;20050;-75
2022/07/14 10:36:08;;;;;;;3.65;0.50;;;22.40;90.00;;;;;;5151822;27;20065;-78
2022/07/14 10:38:47;;;;;;;2.97;0.43;;;22.30;90.50;;;;;;5151838;27;20490;-76
2022/07/14 10:41:28;;;;;;;3.63;0.40;;;21.60;89.70;;;;;;5147322;27;20055;-77
2022/07/14 10:44:17;;;;;;;2.50;0.30;;;22.00;90.40;;;;;;5136940;27;20131;-75
2022/07/14 10:46:45;;;;;;;3.20;0.30;;;22.10;89.40;;;;;;5131362;27;20108;-76
2022/07/14 10:49:14;;;;;;;3.45;0.30;;;21.90;88.40;;;;;;5131294;28;20047;-79
2022/07/14 10:51:51;;;;;;;4.15;0.40;;;22.10;87.10;;;;;;5140115;27;20490;-75
2022/07/14 10:54:25;;;;;;;2.58;0.22;;;21.70;86.60;;;;;;5116673;27;20051;-79
2022/07/14 10:57:14;;;;;;;4.53;0.30;;;21.90;87.40;;;;;;5152817;27;20099;-75
2022/07/14 10:59:47;;;;;;;4.03;0.50;;;22.00;87.20;;;;;;5133643;27;20123;-76
2022/07/14 11:02:13;;;;;;;4.28;0.32;;;21.90;89.40;;;;;;5147920;27;20462;-75
2022/07/14 11:05:12;;;;;;;6.10;0.60;;;22.20;89.80;;;;;;5134580;27;20112;-77
2022/07/14 11:07:39;;;;;;;7.43;0.47;;;22.20;90.10;;;;;;5117782;28;20058;-78
2022/07/14 11:10:11;;;;;;;4.25;0.40;;;22.40;90.10;;;;;;5130438;27;20039;-77
2022/07/14 11:12:59;;;;;;;3.33;0.35;;;22.30;90.40;;;;;;5151500;27;20574;-76
2022/07/14 11:15:56;;;;;;;2.80;0.30;;;22.10;85.60;;;;;;5132845;27;20155;-76
2022/07/14 11:18:28;;;;;;;5.90;0.40;;;22.30;87.90;;;;;;5132473;27;20133;-77
2022/07/14 11:21:06;;;;;;;1.95;0.20;;;22.10;85.80;;;;;;5141250;27;20046;-76
2022/07/14 11:23:34;;;;;;;1.30;0.22;;;22.10;86.80;;;;;;5133221;27;20042;-76
2022/07/14 11:26:06;;;;;;;3.85;0.30;;;22.20;88.40;;;;;;5132081;27;20046;-77
2022/07/14 11:28:47;;;;;;;4.72;0.38;;;22.30;89.30;;;;;;5149945;27;20099;-76
2022/07/14 11:31:13;;;;;;;4.35;0.40;;;22.30;88.60;;;;;;5133487;27;20423;-77
2022/07/14 11:36:30;;;;;;;2.45;0.30;;;22.10;87.90;;;;;;5129779;27;20104;-76
2022/07/14 11:39:14;;;;;;;3.08;0.40;;;21.80;86.50;;;;;;5095938;27;20050;-76
2022/07/14 11:41:45;;;;;;;8.05;0.40;;;21.60;90.00;;;;;;5139435;27;20059;-77
2022/07/14 11:44:33;;;;;;;3.45;0.55;;;21.80;90.00;;;;;;5116556;27;20043;-78
2022/07/14 11:47:00;;;;;;;3.53;0.40;;;21.80;89.70;;;;;;5140694;27;20062;-78
2022/07/14 11:49:27;;;;;;;3.10;0.20;;;21.60;89.20;;;;;;5144080;27;20042;-76
2022/07/14 11:51:54;;;;;;;7.05;0.50;;;21.90;90.00;;;;;;5152542;27;20047;-76
2022/07/14 11:54:21;;;;;;;4.65;0.50;;;22.10;90.10;;;;;;5149939;27;20394;-77
2022/07/14 11:56:48;;;;;;;3.42;0.50;;;22.30;90.20;;;;;;5133554;27;20404;-76
2022/07/14 11:59:19;;;;;;;3.38;0.40;;;22.10;90.00;;;;;;5111068;28;20063;-78
2022/07/14 12:01:45;;;;;;;2.47;0.40;;;22.40;90.00;;;;;;5112647;27;20532;-77
2022/07/14 12:04:17;;;;;;;3.92;0.68;;;22.30;88.50;;;;;;5116245;27;20051;-77
2022/07/14 12:06:45;;;;;;;7.30;0.50;;;21.80;89.50;;;;;;5134596;27;20042;-76
2022/07/14 12:09:11;;;;;;;4.93;0.50;;;21.70;90.00;;;;;;5135129;27;20039;-76
2022/07/14 12:11:37;;;;;;;5.07;0.60;;;21.70;90.00;;;;;;5134320;27;20047;-76
2022/07/14 12:14:03;;;;;;;5.37;0.50;;;21.70;90.20;;;;;;5138704;27;20104;-75
2022/07/14 12:16:42;;;;;;;5.00;0.50;;;21.50;90.40;;;;;;5114753;27;20454;-76
2022/07/14 12:19:09;;;;;;;3.97;0.43;;;21.60;90.70;;;;;;5135539;27;20059;-77
2022/07/14 12:21:36;;;;;;;5.20;0.50;;;21.70;90.80;;;;;;5134638;27;20546;-76
2022/07/14 12:24:03;;;;;;;3.80;0.40;;;21.70;91.10;;;;;;5108762;27;20050;-77
2022/07/14 12:26:29;;;;;;;5.13;0.60;;;21.30;88.80;;;;;;5136431;27;20476;-76
2022/07/14 12:28:58;;;;;;;5.75;0.40;;;21.30;89.30;;;;;;5137375;27;20046;-76
2022/07/14 12:31:23;;;;;;;4.38;0.60;;;21.40;89.10;;;;;;5154838;27;20497;-77
2022/07/14 12:33:52;;;;;;;1.40;0.40;;;21.10;88.40;;;;;;5155487;27;20039;-75
2022/07/14 12:36:21;;;;;;;3.97;0.60;;;21.70;89.70;;;;;;5154531;27;20114;-74
2022/07/14 12:38:48;;;;;;;5.47;0.50;;;21.80;89.20;;;;;;5154900;27;20051;-77
2022/07/14 12:41:16;;;;;;;4.88;2.00;;;22.00;89.60;;;;;;5155014;27;20042;-77
2022/07/14 12:43:43;;;;;;;5.25;1.20;;;21.80;88.80;;;;;;5136441;27;20031;-77
2022/07/14 12:46:10;;;;;;;;;;;21.80;88.20;;;;;;5155681;27;20127;-77
2022/07/14 12:48:48;;;;;;;3.65;0.40;;;21.90;88.10;;;;;;5154571;27;19938;-76
2022/07/14 12:51:27;;;;;;;3.67;0.50;;;21.60;89.40;;;;;;5135574;27;20042;-75
2022/07/14 12:54:03;;;;;;;6.60;0.50;;;21.70;88.20;;;;;;5136647;27;20035;-76
2022/07/14 12:56:37;;;;;;;3.60;0.43;;;21.50;88.70;;;;;;5154359;27;20537;-75
2022/07/14 12:59:06;;;;;;;3.17;0.40;;;21.60;89.20;;;;;;5136580;27;20066;-76
2022/07/14 13:01:51;;;;;;;2.13;0.50;;;21.70;89.10;;;;;;5154261;27;20043;-76